createdAt,value
2018-07-27T00:02:00.544Z,4.13
2018-07-27T00:04:28.957Z,3.50
2018-07-27T00:06:57.471Z,4.40
2018-07-27T00:09:26.799Z,4.13
2018-07-27T00:11:55.581Z,3.77
2018-07-27T00:14:24.412Z,3.17
2018-07-27T00:16:52.820Z,3.77
2018-07-27T00:19:21.221Z,3.77
2018-07-27T00:21:50.017Z,4.00
2018-07-27T00:24:18.562Z,4.40
2018-07-27T00:26:46.998Z,4.07
2018-07-27T00:29:15.451Z,3.47
2018-07-27T00:31:43.877Z,3.70
2018-07-27T00:34:12.260Z,4.57
2018-07-27T00:36:41.052Z,3.53
2018-07-27T00:39:11.005Z,3.77
2018-07-27T00:41:40.173Z,4.20
2018-07-27T00:44:09.000Z,4.10
2018-07-27T00:46:37.385Z,3.13
2018-07-27T00:49:06.321Z,4.60
2018-07-27T00:51:34.753Z,3.90
2018-07-27T00:54:05.794Z,4.63
2018-07-27T00:56:34.325Z,3.90
2018-07-27T00:59:02.737Z,4.17
2018-07-27T01:01:32.053Z,3.10
2018-07-27T01:04:00.494Z,3.97
2018-07-27T01:06:28.906Z,4.67
2018-07-27T01:08:57.302Z,3.97
2018-07-27T01:11:25.712Z,3.50
2018-07-27T01:13:54.145Z,3.40
2018-07-27T01:16:23.404Z,3.60
2018-07-27T01:18:51.881Z,4.23
2018-07-27T01:21:20.321Z,3.23
2018-07-27T01:23:48.706Z,3.50
2018-07-27T01:26:17.109Z,3.23
2018-07-27T01:28:45.496Z,2.77
2018-07-27T01:31:13.925Z,2.77
2018-07-27T01:33:42.393Z,3.43
2018-07-27T01:36:10.831Z,3.73
2018-07-27T01:38:39.267Z,3.37
2018-07-27T01:41:07.853Z,2.90
2018-07-27T01:43:36.270Z,3.37
2018-07-27T01:46:06.149Z,3.10
2018-07-27T01:48:34.582Z,3.30
2018-07-27T01:51:03.062Z,3.43
2018-07-27T01:53:31.629Z,3.03
2018-07-27T01:56:00.050Z,3.20
2018-07-27T01:58:28.793Z,3.10
2018-07-27T02:00:57.541Z,2.60
2018-07-27T02:03:25.929Z,3.30
2018-07-27T02:05:54.687Z,3.10
2018-07-27T02:08:23.277Z,2.90
2018-07-27T02:10:51.684Z,3.10
2018-07-27T02:13:20.456Z,2.50
2018-07-27T02:15:48.839Z,2.73
2018-07-27T02:18:17.248Z,2.40
2018-07-27T02:20:45.821Z,2.40
2018-07-27T02:23:14.209Z,3.07
2018-07-27T02:25:42.736Z,2.67
2018-07-27T02:28:11.192Z,2.50
2018-07-27T02:30:39.597Z,3.33
2018-07-27T02:33:07.993Z,2.77
2018-07-27T02:35:36.990Z,2.17
2018-07-27T02:38:06.507Z,2.57
2018-07-27T02:40:34.925Z,3.10
2018-07-27T02:43:03.685Z,2.53
2018-07-27T02:45:32.200Z,2.90
2018-07-27T02:48:00.605Z,3.10
2018-07-27T02:50:29.045Z,3.17
2018-07-27T02:52:57.539Z,2.47
2018-07-27T02:55:25.957Z,2.40
2018-07-27T02:57:54.389Z,2.80
2018-07-27T03:00:22.788Z,3.20
2018-07-27T03:02:51.202Z,3.40
2018-07-27T03:05:19.661Z,2.90
2018-07-27T03:07:48.160Z,2.97
2018-07-27T03:10:16.592Z,2.20
2018-07-27T03:12:44.994Z,2.87
2018-07-27T03:15:13.384Z,2.97
2018-07-27T03:17:41.818Z,2.93
2018-07-27T03:20:10.252Z,2.70
2018-07-27T03:22:38.657Z,2.63
2018-07-27T03:25:07.354Z,2.57
2018-07-27T03:27:35.767Z,2.30
2018-07-27T03:30:04.840Z,3.83
2018-07-27T03:32:33.333Z,2.90
2018-07-27T03:35:01.746Z,2.90
2018-07-27T03:37:30.221Z,2.63
2018-07-27T03:39:58.653Z,2.93
2018-07-27T03:42:27.110Z,2.90
2018-07-27T03:44:55.537Z,2.63
2018-07-27T03:47:23.939Z,3.10
2018-07-27T03:49:53.349Z,3.10
2018-07-27T03:52:21.773Z,2.60
2018-07-27T03:54:50.573Z,2.20
2018-07-27T03:57:18.980Z,2.33
2018-07-27T03:59:47.376Z,2.90
2018-07-27T04:02:15.844Z,2.60
2018-07-27T04:04:44.435Z,2.67
2018-07-27T04:07:12.945Z,2.67
2018-07-27T04:09:41.562Z,3.20
2018-07-27T04:12:10.165Z,3.27
2018-07-27T04:14:38.300Z,2.77
2018-07-27T04:17:06.754Z,3.07
2018-07-27T04:19:35.213Z,3.10
2018-07-27T04:22:03.771Z,2.87
2018-07-27T04:24:32.147Z,3.10
2018-07-27T04:27:00.566Z,2.50
2018-07-27T04:29:29.181Z,2.63
2018-07-27T04:31:57.582Z,2.83
2018-07-27T04:34:25.997Z,3.13
2018-07-27T04:36:54.397Z,2.30
2018-07-27T04:39:22.858Z,2.70
2018-07-27T04:41:57.838Z,2.90
2018-07-27T04:44:26.297Z,3.00
2018-07-27T04:46:54.697Z,3.30
2018-07-27T04:49:23.116Z,2.57
2018-07-27T04:51:51.711Z,2.80
2018-07-27T04:54:20.098Z,2.70
2018-07-27T04:56:48.592Z,3.37
2018-07-27T04:59:17.196Z,2.70
2018-07-27T05:01:45.733Z,3.30
2018-07-27T05:04:14.899Z,2.47
2018-07-27T05:06:44.250Z,2.70
2018-07-27T05:09:18.453Z,3.27
2018-07-27T05:11:47.025Z,3.33
2018-07-27T05:14:15.607Z,2.77
2018-07-27T05:16:44.141Z,2.97
2018-07-27T05:19:12.560Z,3.30
2018-07-27T05:21:41.361Z,3.30
2018-07-27T05:24:09.814Z,2.80
2018-07-27T05:26:38.297Z,4.20
2018-07-27T05:29:07.092Z,3.43
2018-07-27T05:31:35.497Z,3.10
2018-07-27T05:34:04.278Z,2.70
2018-07-27T05:36:32.691Z,2.87
2018-07-27T05:39:01.082Z,2.90
2018-07-27T05:41:29.570Z,3.27
2018-07-27T05:43:57.969Z,2.77
2018-07-27T05:46:26.365Z,3.20
2018-07-27T05:48:54.774Z,3.03
2018-07-27T05:51:23.150Z,3.20
2018-07-27T05:53:51.757Z,3.60
2018-07-27T05:56:20.242Z,3.70
2018-07-27T05:58:48.682Z,3.40
2018-07-27T06:01:17.155Z,3.37
2018-07-27T06:03:46.399Z,3.10
2018-07-27T06:06:14.825Z,3.20
2018-07-27T06:08:43.301Z,3.27
2018-07-27T06:11:12.249Z,3.23
2018-07-27T06:13:40.865Z,3.50
2018-07-27T06:16:10.105Z,2.83
2018-07-27T06:18:38.526Z,3.50
2018-07-27T06:21:13.397Z,3.50
2018-07-27T06:23:42.551Z,3.10
2018-07-27T06:26:11.249Z,3.50
2018-07-27T06:28:39.679Z,2.70
2018-07-27T06:31:08.417Z,3.70
2018-07-27T06:33:36.842Z,3.30
2018-07-27T06:36:05.642Z,4.43
2018-07-27T06:38:34.417Z,3.03
2018-07-27T06:41:03.253Z,3.43
2018-07-27T06:43:31.820Z,3.93
2018-07-27T06:46:00.324Z,3.30
2018-07-27T06:48:28.725Z,2.90
2018-07-27T06:50:57.145Z,3.93
2018-07-27T06:53:26.285Z,3.17
2018-07-27T06:55:54.764Z,2.93
2018-07-27T06:58:23.181Z,3.30
2018-07-27T07:00:51.597Z,3.53
2018-07-27T07:03:20.064Z,3.40
2018-07-27T07:05:48.760Z,3.37
2018-07-27T07:08:17.172Z,3.80
2018-07-27T07:10:45.689Z,3.20
2018-07-27T07:13:14.225Z,3.70
2018-07-27T07:15:42.950Z,4.13
2018-07-27T07:18:11.329Z,3.60
2018-07-27T07:20:39.748Z,3.97
2018-07-27T07:23:08.214Z,3.43
2018-07-27T07:25:36.843Z,3.87
2018-07-27T07:28:05.965Z,3.40
2018-07-27T07:30:34.333Z,3.63
2018-07-27T07:33:02.780Z,3.53
2018-07-27T07:35:31.404Z,4.10
2018-07-27T07:37:59.797Z,4.07
2018-07-27T07:40:28.217Z,3.60
2018-07-27T07:42:56.580Z,3.53
2018-07-27T07:45:25.022Z,4.33
2018-07-27T07:47:53.405Z,3.77
2018-07-27T07:50:21.790Z,3.57
2018-07-27T07:52:50.174Z,3.37
2018-07-27T07:55:18.578Z,4.57
2018-07-27T07:57:47.029Z,4.03
2018-07-27T08:00:15.460Z,3.50
2018-07-27T08:02:43.858Z,3.37
2018-07-27T08:05:12.341Z,3.50
2018-07-27T08:07:40.764Z,2.97
2018-07-27T08:10:09.166Z,3.60
2018-07-27T08:12:37.600Z,3.00
2018-07-27T08:15:05.993Z,3.10
2018-07-27T08:17:34.420Z,3.30
2018-07-27T08:20:02.893Z,3.37
2018-07-27T08:22:31.343Z,3.47
2018-07-27T08:24:59.713Z,3.23
2018-07-27T08:27:28.118Z,2.97
2018-07-27T08:29:56.501Z,2.80
2018-07-27T08:32:24.905Z,4.30
2018-07-27T08:34:53.290Z,3.37
2018-07-27T08:37:21.685Z,2.97
2018-07-27T08:39:50.697Z,3.17
2018-07-27T08:42:19.445Z,3.73
2018-07-27T08:44:47.920Z,3.03
2018-07-27T08:47:16.386Z,3.00
2018-07-27T08:49:44.976Z,3.43
2018-07-27T08:52:13.408Z,3.30
2018-07-27T08:54:41.833Z,3.27
2018-07-27T08:57:10.221Z,3.30
2018-07-27T08:59:38.636Z,3.00
2018-07-27T09:02:07.100Z,2.80
2018-07-27T09:04:35.569Z,3.00
2018-07-27T09:07:04.348Z,3.23
2018-07-27T09:09:32.744Z,3.23
2018-07-27T09:12:01.156Z,4.17
2018-07-27T09:14:29.539Z,3.50
2018-07-27T09:16:57.933Z,3.50
2018-07-27T09:19:26.326Z,3.10
2018-07-27T09:21:55.096Z,3.47
2018-07-27T09:24:23.621Z,3.53
2018-07-27T09:26:52.100Z,3.13
2018-07-27T09:29:20.501Z,3.10
2018-07-27T09:31:49.013Z,3.07
2018-07-27T09:34:17.452Z,3.40
2018-07-27T09:36:46.029Z,2.90
2018-07-27T09:39:14.466Z,3.00
2018-07-27T09:41:42.832Z,2.87
2018-07-27T09:44:11.250Z,2.87
2018-07-27T09:46:39.677Z,2.83
2018-07-27T09:49:08.257Z,2.80
2018-07-27T09:51:36.671Z,3.27
2018-07-27T09:54:05.318Z,2.63
2018-07-27T09:56:33.720Z,3.20
2018-07-27T09:59:02.162Z,3.20
2018-07-27T10:01:30.591Z,2.70
2018-07-27T10:03:59.108Z,2.70
2018-07-27T10:06:27.812Z,2.90
2018-07-27T10:08:56.234Z,2.80
2018-07-27T10:11:24.685Z,2.80
2018-07-27T10:13:53.103Z,2.87
2018-07-27T10:16:21.522Z,2.57
2018-07-27T10:18:49.961Z,2.47
2018-07-27T10:21:18.381Z,2.83
2018-07-27T10:23:46.812Z,2.60
2018-07-27T10:26:15.247Z,2.70
2018-07-27T10:28:43.697Z,3.10
2018-07-27T10:31:12.123Z,2.90
2018-07-27T10:33:40.758Z,2.43
2018-07-27T10:36:09.208Z,3.00
2018-07-27T10:38:37.670Z,2.50
2018-07-27T10:41:06.400Z,2.80
2018-07-27T10:43:35.135Z,2.93
2018-07-27T10:46:03.684Z,2.53
2018-07-27T10:48:32.173Z,3.37
2018-07-27T10:51:00.730Z,2.53
2018-07-27T10:53:29.140Z,3.40
2018-07-27T10:55:57.925Z,2.90
2018-07-27T10:58:26.320Z,2.93
2018-07-27T11:00:54.738Z,3.10
2018-07-27T11:03:23.132Z,4.73
2018-07-27T11:05:51.646Z,3.27
2018-07-27T11:08:20.086Z,3.20
2018-07-27T11:10:49.216Z,2.63
2018-07-27T11:13:17.658Z,2.50
2018-07-27T11:15:46.085Z,3.30
2018-07-27T11:18:14.513Z,2.50
2018-07-27T11:20:42.980Z,2.57
2018-07-27T11:23:11.413Z,3.30
2018-07-27T11:25:39.862Z,2.60
2018-07-27T11:28:08.486Z,2.77
2018-07-27T11:30:36.881Z,2.60
2018-07-27T11:33:05.312Z,3.00
2018-07-27T11:35:33.772Z,2.63
2018-07-27T11:38:02.509Z,2.47
2018-07-27T11:40:30.904Z,3.33
2018-07-27T11:42:59.343Z,3.17
2018-07-27T11:45:27.743Z,2.73
2018-07-27T11:47:56.167Z,3.20
2018-07-27T11:50:24.595Z,3.03
2018-07-27T11:52:53.229Z,3.13
2018-07-27T11:55:21.637Z,3.60
2018-07-27T11:57:50.041Z,3.50
2018-07-27T12:00:18.454Z,3.27
2018-07-27T12:02:47.048Z,4.03
2018-07-27T12:05:15.465Z,3.33
2018-07-27T12:07:43.912Z,3.60
2018-07-27T12:10:12.329Z,4.10
2018-07-27T12:12:40.761Z,3.47
2018-07-27T12:15:09.488Z,2.93
2018-07-27T12:17:37.853Z,2.93
2018-07-27T12:20:06.368Z,3.20
2018-07-27T12:22:34.762Z,3.53
2018-07-27T12:25:03.515Z,3.30
2018-07-27T12:27:31.921Z,3.20
2018-07-27T12:30:00.428Z,3.90
2018-07-27T12:32:28.965Z,3.20
2018-07-27T12:34:57.373Z,3.30
2018-07-27T12:37:25.777Z,4.00
2018-07-27T12:39:54.168Z,3.43
2018-07-27T12:42:22.552Z,3.83
2018-07-27T12:44:50.996Z,3.10
2018-07-27T12:47:19.645Z,3.37
2018-07-27T12:49:48.057Z,3.27
2018-07-27T12:52:16.472Z,3.57
2018-07-27T12:54:44.881Z,3.70
2018-07-27T12:57:13.261Z,3.63
2018-07-27T12:59:41.648Z,3.17
2018-07-27T13:02:10.097Z,3.40
2018-07-27T13:04:38.522Z,3.80
2018-07-27T13:07:06.949Z,3.83
2018-07-27T13:09:35.349Z,3.93
2018-07-27T13:12:04.116Z,3.40
2018-07-27T13:17:00.933Z,3.30
2018-07-27T13:19:29.349Z,3.90
2018-07-27T13:21:58.166Z,3.87
2018-07-27T13:26:55.409Z,3.57
2018-07-27T13:29:23.884Z,4.40
2018-07-27T13:31:53.890Z,3.20
2018-07-27T13:34:40.557Z,3.90
2018-07-27T13:37:09.126Z,3.47
2018-07-27T13:39:38.140Z,4.30
2018-07-27T13:42:07.596Z,3.93
2018-07-27T13:44:37.118Z,4.40
2018-07-27T13:47:06.098Z,3.40
2018-07-27T13:49:34.549Z,3.73
2018-07-27T13:52:03.076Z,4.07
2018-07-27T13:54:32.768Z,4.10
2018-07-27T13:57:02.848Z,4.20
2018-07-27T13:59:31.276Z,3.40
2018-07-27T14:01:59.721Z,3.40
2018-07-27T14:04:28.204Z,3.80
2018-07-27T14:06:58.545Z,3.87
2018-07-27T14:09:27.997Z,3.30
2018-07-27T14:11:56.524Z,3.63
2018-07-27T14:14:25.057Z,3.30
2018-07-27T14:16:53.593Z,3.90
2018-07-27T14:19:22.416Z,3.90
2018-07-27T14:21:50.880Z,4.27
2018-07-27T14:24:19.477Z,4.13
2018-07-27T14:26:47.887Z,3.27
2018-07-27T14:29:16.449Z,3.57
2018-07-27T14:31:45.076Z,3.50
2018-07-27T14:34:13.495Z,3.77
2018-07-27T14:36:41.960Z,3.70
2018-07-27T14:39:12.447Z,3.43
2018-07-27T14:41:41.530Z,3.40
2018-07-27T14:44:09.981Z,3.27
2018-07-27T14:46:38.735Z,4.40
2018-07-27T14:49:11.608Z,3.40
2018-07-27T14:51:40.600Z,3.80
2018-07-27T14:54:10.665Z,3.43
2018-07-27T14:56:39.633Z,3.30
2018-07-27T14:59:08.033Z,3.50
2018-07-27T15:01:36.972Z,3.83
2018-07-27T15:04:05.650Z,3.63
2018-07-27T15:06:34.204Z,2.87
2018-07-27T15:09:02.675Z,3.60
2018-07-27T15:11:31.121Z,3.23
2018-07-27T15:13:59.648Z,3.20
2018-07-27T15:16:28.064Z,3.20
2018-07-27T15:18:56.288Z,3.53
2018-07-27T15:21:24.825Z,3.30
2018-07-27T15:23:53.309Z,3.70
2018-07-27T15:26:21.728Z,3.57
2018-07-27T15:28:50.212Z,2.63
2018-07-27T15:31:18.640Z,3.87
2018-07-27T15:33:47.060Z,4.20
2018-07-27T15:36:15.516Z,3.87
2018-07-27T15:38:44.106Z,2.90
2018-07-27T15:41:12.515Z,3.73
2018-07-27T15:43:41.029Z,3.20
2018-07-27T15:46:09.977Z,3.93
2018-07-27T15:48:38.401Z,3.60
2018-07-27T15:51:07.249Z,2.83
2018-07-27T15:53:35.701Z,4.60
2018-07-27T15:56:04.478Z,3.93
2018-07-27T15:58:32.959Z,3.70
2018-07-27T16:01:01.425Z,3.60
2018-07-27T16:03:29.886Z,3.20
2018-07-27T16:05:58.473Z,3.90
2018-07-27T16:08:26.906Z,3.40
2018-07-27T16:10:55.715Z,3.10
2018-07-27T16:13:24.177Z,3.60
2018-07-27T16:15:52.692Z,2.97
2018-07-27T16:18:21.308Z,3.57
2018-07-27T16:20:50.085Z,3.63
2018-07-27T16:23:18.502Z,3.47
2018-07-27T16:25:47.253Z,3.90
2018-07-27T16:28:15.728Z,3.73
2018-07-27T16:30:45.137Z,3.63
2018-07-27T16:33:13.881Z,4.00
2018-07-27T16:35:42.341Z,3.60
2018-07-27T16:38:10.817Z,3.17
2018-07-27T16:40:39.259Z,3.70
2018-07-27T16:43:07.734Z,3.30
2018-07-27T16:45:36.265Z,3.40
2018-07-27T16:48:04.977Z,3.50
2018-07-27T16:50:33.729Z,3.93
2018-07-27T16:53:02.163Z,3.87
2018-07-27T16:55:30.774Z,3.70
2018-07-27T16:57:59.221Z,3.50
2018-07-27T17:00:27.618Z,3.70
2018-07-27T17:02:56.081Z,3.47
2018-07-27T17:05:24.544Z,3.70
2018-07-27T17:07:52.968Z,3.43
2018-07-27T17:10:21.391Z,3.20
2018-07-27T17:12:49.856Z,3.90
2018-07-27T17:15:18.829Z,3.40
2018-07-27T17:17:47.517Z,3.80
2018-07-27T17:20:15.919Z,3.60
2018-07-27T17:22:44.449Z,3.30
2018-07-27T17:25:13.238Z,3.63
2018-07-27T17:27:42.220Z,3.67
2018-07-27T17:30:11.087Z,3.30
2018-07-27T17:32:39.753Z,2.90
2018-07-27T17:35:08.913Z,3.87
2018-07-27T17:37:37.676Z,2.93
2018-07-27T17:40:06.918Z,3.27
2018-07-27T17:42:35.501Z,3.20
2018-07-27T17:45:04.066Z,3.13
2018-07-27T17:47:32.593Z,3.03
2018-07-27T17:50:01.056Z,3.10
2018-07-27T17:52:29.498Z,3.50
2018-07-27T17:54:58.018Z,3.97
2018-07-27T17:57:26.654Z,3.80
2018-07-27T17:59:55.122Z,4.10
2018-07-27T18:02:23.538Z,3.27
2018-07-27T18:04:51.992Z,2.83
2018-07-27T18:07:23.680Z,3.40
2018-07-27T18:09:52.719Z,3.10
2018-07-27T18:12:21.185Z,3.27
2018-07-27T18:14:49.936Z,2.97
2018-07-27T18:17:18.354Z,3.20
2018-07-27T18:19:46.783Z,3.17
2018-07-27T18:22:15.576Z,3.53
2018-07-27T18:24:44.022Z,3.20
2018-07-27T18:27:12.478Z,3.20
2018-07-27T18:29:40.905Z,2.70
2018-07-27T18:32:09.682Z,2.90
2018-07-27T18:34:38.108Z,3.40
2018-07-27T18:37:06.636Z,3.10
2018-07-27T18:39:35.086Z,3.17
2018-07-27T18:42:04.085Z,3.30
2018-07-27T18:44:32.625Z,2.53
2018-07-27T18:47:01.238Z,2.80
2018-07-27T18:49:29.654Z,2.83
2018-07-27T18:51:58.101Z,2.73
2018-07-27T18:54:26.618Z,3.10
2018-07-27T18:56:55.013Z,3.27
2018-07-27T18:59:23.864Z,3.17
2018-07-27T19:01:52.338Z,3.70
2018-07-27T19:04:20.720Z,2.90
2018-07-27T19:06:49.155Z,3.17
2018-07-27T19:09:17.670Z,3.20
2018-07-27T19:11:46.177Z,2.67
2018-07-27T19:14:14.624Z,3.77
2018-07-27T19:16:43.065Z,2.67
2018-07-27T19:19:11.502Z,3.13
2018-07-27T19:21:39.922Z,2.93
2018-07-27T19:24:08.479Z,3.27
2018-07-27T19:26:37.028Z,3.20
2018-07-27T19:29:05.562Z,3.17
2018-07-27T19:31:34.095Z,3.20
2018-07-27T19:34:02.692Z,3.70
2018-07-27T19:36:31.345Z,2.80
2018-07-27T19:38:59.860Z,3.67
2018-07-27T19:41:28.507Z,3.00
2018-07-27T19:43:57.405Z,3.40
2018-07-27T19:46:25.997Z,3.67
2018-07-27T19:48:54.600Z,3.60
2018-07-27T19:51:23.203Z,4.20
2018-07-27T19:53:51.718Z,3.27
2018-07-27T19:56:20.397Z,3.23
2018-07-27T19:58:48.988Z,2.83
2018-07-27T20:01:17.456Z,3.70
2018-07-27T20:03:45.936Z,3.90
2018-07-27T20:06:14.543Z,3.87
2018-07-27T20:08:43.131Z,3.40
2018-07-27T20:11:11.663Z,3.60
2018-07-27T20:13:40.172Z,3.63
2018-07-27T20:16:08.589Z,3.83
2018-07-27T20:18:36.997Z,3.03
2018-07-27T20:21:05.526Z,3.50
2018-07-27T20:23:33.961Z,2.83
2018-07-27T20:26:02.339Z,3.50
2018-07-27T20:28:30.745Z,4.00
2018-07-27T20:30:59.358Z,4.23
2018-07-27T20:33:27.776Z,4.30
2018-07-27T20:35:56.307Z,4.00
2018-07-27T20:38:24.816Z,3.50
2018-07-27T20:40:53.267Z,3.17
2018-07-27T20:43:21.697Z,3.20
2018-07-27T20:45:50.169Z,3.40
2018-07-27T20:48:18.610Z,3.30
2018-07-27T20:50:47.440Z,3.07
2018-07-27T20:53:17.911Z,3.60
2018-07-27T20:55:46.348Z,3.60
2018-07-27T20:58:14.752Z,3.37
2018-07-27T21:00:43.215Z,4.17
2018-07-27T21:03:11.681Z,3.47
2018-07-27T21:05:40.134Z,3.40
2018-07-27T21:08:08.553Z,4.57
2018-07-27T21:10:36.954Z,4.20
2018-07-27T21:13:05.369Z,3.10
2018-07-27T21:15:33.838Z,4.03
2018-07-27T21:18:02.245Z,4.20
2018-07-27T21:20:30.710Z,4.60
2018-07-27T21:22:59.141Z,4.00
2018-07-27T21:25:27.833Z,4.70
2018-07-27T21:27:56.216Z,4.70
2018-07-27T21:30:24.670Z,5.80
2018-07-27T21:32:57.460Z,4.40
2018-07-27T21:35:27.673Z,4.87
2018-07-27T21:37:56.085Z,4.60
2018-07-27T21:40:24.949Z,5.07
2018-07-27T21:42:53.727Z,5.13
2018-07-27T21:45:22.605Z,4.70
2018-07-27T21:47:52.699Z,4.37
2018-07-27T21:50:21.706Z,4.83
2018-07-27T21:52:50.780Z,5.67
2018-07-27T21:55:20.222Z,4.67
2018-07-27T21:57:52.359Z,5.63
2018-07-27T22:00:35.757Z,4.57
2018-07-27T22:05:59.582Z,4.37
2018-07-27T22:08:34.556Z,4.20
2018-07-27T22:11:04.401Z,5.00
2018-07-27T22:13:33.713Z,4.63
2018-07-27T22:16:04.710Z,3.87
2018-07-27T22:18:34.566Z,5.00
2018-07-27T22:21:06.713Z,4.47
2018-07-27T22:23:35.584Z,4.77
2018-07-27T22:26:05.824Z,4.30
2018-07-27T22:28:34.779Z,4.50
2018-07-27T22:31:09.133Z,4.70
2018-07-27T22:33:39.902Z,4.80
2018-07-27T22:36:11.271Z,4.77
2018-07-27T22:38:41.437Z,4.37
2018-07-27T22:41:14.273Z,4.30
2018-07-27T22:43:53.267Z,3.70
2018-07-27T22:46:23.840Z,4.30
2018-07-27T22:48:55.401Z,4.20
2018-07-27T22:51:29.168Z,4.43
2018-07-27T22:54:02.063Z,4.30
2018-07-27T22:56:34.629Z,4.70
2018-07-27T22:59:04.723Z,4.37
2018-07-27T23:01:34.169Z,4.20
2018-07-27T23:04:04.239Z,3.77
2018-07-27T23:06:33.934Z,3.97
2018-07-27T23:09:04.634Z,3.87
2018-07-27T23:11:34.904Z,4.33
2018-07-27T23:14:03.836Z,3.33
2018-07-27T23:16:34.760Z,4.27
2018-07-27T23:19:04.562Z,3.77
2018-07-27T23:21:34.530Z,4.43
2018-07-27T23:24:03.735Z,4.17
2018-07-27T23:26:34.408Z,4.00
2018-07-27T23:29:04.296Z,3.80
2018-07-27T23:31:35.331Z,4.60
2018-07-27T23:34:10.290Z,4.97
2018-07-27T23:36:41.435Z,3.60
2018-07-27T23:39:14.192Z,4.27
2018-07-27T23:41:44.653Z,4.00
2018-07-27T23:44:17.544Z,3.73
2018-07-27T23:46:47.649Z,3.47
2018-07-27T23:49:20.141Z,4.50
2018-07-27T23:51:55.938Z,4.20
2018-07-27T23:54:30.862Z,4.27
2018-07-27T23:57:07.448Z,3.80
2018-07-27T23:59:37.674Z,5.53
